createdAt,value
2018-12-25T00:02:25.382Z,6.37
2018-12-25T00:05:05.197Z,6.93
2018-12-25T00:07:44.311Z,6.67
2018-12-25T00:10:23.749Z,5.87
2018-12-25T00:13:03.256Z,6.30
2018-12-25T00:15:43.021Z,5.97
2018-12-25T00:18:22.113Z,6.93
2018-12-25T00:21:01.541Z,6.23
2018-12-25T00:23:41.001Z,8.00
2018-12-25T00:26:20.585Z,8.10
2018-12-25T00:28:59.774Z,6.67
2018-12-25T00:31:39.452Z,6.50
2018-12-25T00:34:18.800Z,6.77
2018-12-25T00:36:59.033Z,6.20
2018-12-25T00:39:38.129Z,7.00
2018-12-25T00:42:17.724Z,6.23
2018-12-25T00:44:57.226Z,7.17
2018-12-25T00:47:37.014Z,6.33
2018-12-25T00:50:16.173Z,6.53
2018-12-25T00:52:55.509Z,6.70
2018-12-25T00:55:35.273Z,7.63
2018-12-25T00:58:15.090Z,6.03
2018-12-25T01:00:55.032Z,6.43
2018-12-25T01:03:34.477Z,6.70
2018-12-25T01:06:14.132Z,7.27
2018-12-25T01:08:53.693Z,7.10
2018-12-25T01:11:33.080Z,7.07
2018-12-25T01:14:12.281Z,6.50
2018-12-25T01:16:52.147Z,6.57
2018-12-25T01:19:32.508Z,6.93
2018-12-25T01:22:12.006Z,7.07
2018-12-25T01:24:51.877Z,7.30
2018-12-25T01:27:31.554Z,7.00
2018-12-25T01:30:11.291Z,7.37
2018-12-25T01:32:51.325Z,7.43
2018-12-25T01:35:30.917Z,7.90
2018-12-25T01:38:10.258Z,7.77
2018-12-25T01:40:50.153Z,7.10
2018-12-25T01:43:30.078Z,7.90
2018-12-25T01:46:09.684Z,7.73
2018-12-25T01:48:49.041Z,8.13
2018-12-25T01:51:28.731Z,7.97
2018-12-25T01:54:07.925Z,8.40
2018-12-25T01:56:47.344Z,8.17
2018-12-25T01:59:26.896Z,8.23
2018-12-25T02:02:06.643Z,8.60
2018-12-25T02:04:46.764Z,9.00
2018-12-25T02:07:26.201Z,9.10
2018-12-25T02:10:05.798Z,8.47
2018-12-25T02:12:45.638Z,9.70
2018-12-25T02:15:24.736Z,8.67
2018-12-25T02:18:03.991Z,8.77
2018-12-25T02:20:43.425Z,8.50
2018-12-25T02:23:22.706Z,9.60
2018-12-25T02:26:01.940Z,9.43
2018-12-25T02:28:41.456Z,8.27
2018-12-25T02:31:20.514Z,9.43
2018-12-25T02:34:00.291Z,9.27
2018-12-25T02:36:40.448Z,9.20
2018-12-25T02:39:20.112Z,9.17
2018-12-25T02:41:59.506Z,8.83
2018-12-25T02:44:39.142Z,8.73
2018-12-25T02:47:18.401Z,8.77
2018-12-25T02:49:58.589Z,8.60
2018-12-25T02:52:38.302Z,8.57
2018-12-25T02:55:17.658Z,9.10
2018-12-25T02:57:56.859Z,8.53
2018-12-25T03:00:36.464Z,8.27
2018-12-25T03:03:16.332Z,8.47
2018-12-25T03:05:55.817Z,8.67
2018-12-25T03:08:35.568Z,9.17
2018-12-25T03:11:14.869Z,8.50
2018-12-25T03:13:54.002Z,7.73
2018-12-25T03:16:33.533Z,8.47
2018-12-25T03:19:13.148Z,9.23
2018-12-25T03:21:52.499Z,8.27
2018-12-25T03:24:31.650Z,8.77
2018-12-25T03:27:11.133Z,8.43
2018-12-25T03:29:50.510Z,9.23
2018-12-25T03:32:29.856Z,8.87
2018-12-25T03:35:09.441Z,8.53
2018-12-25T03:37:48.648Z,8.80
2018-12-25T03:40:27.780Z,9.93
2018-12-25T03:43:07.081Z,9.73
2018-12-25T03:45:46.641Z,9.40
2018-12-25T03:48:26.027Z,8.83
2018-12-25T03:51:05.669Z,9.57
2018-12-25T03:53:45.628Z,9.60
2018-12-25T03:56:25.314Z,9.53
2018-12-25T03:59:04.733Z,8.63
2018-12-25T04:01:43.881Z,8.83
2018-12-25T04:04:23.346Z,9.17
2018-12-25T04:07:02.833Z,9.33
2018-12-25T04:09:42.083Z,9.90
2018-12-25T04:12:21.450Z,9.60
2018-12-25T04:15:00.739Z,9.13
2018-12-25T04:17:39.997Z,10.30
2018-12-25T04:20:20.206Z,9.63
2018-12-25T04:23:00.259Z,8.80
2018-12-25T04:25:39.322Z,8.30
2018-12-25T04:28:18.740Z,9.73
2018-12-25T04:30:58.208Z,8.57
2018-12-25T04:33:37.785Z,9.00
2018-12-25T04:36:17.389Z,8.83
2018-12-25T04:38:56.745Z,9.30
2018-12-25T04:41:36.126Z,8.70
2018-12-25T04:44:15.325Z,8.90
2018-12-25T04:46:54.412Z,7.93
2018-12-25T04:49:33.980Z,8.40
2018-12-25T04:52:13.941Z,8.63
2018-12-25T04:54:53.270Z,8.33
2018-12-25T04:57:32.788Z,8.50
2018-12-25T04:59:58.972Z,8.33
2018-12-25T05:02:45.029Z,8.70
2018-12-25T05:05:31.074Z,8.57
2018-12-25T05:08:17.129Z,8.47
2018-12-25T05:11:03.166Z,8.30
2018-12-25T05:13:49.220Z,9.10
2018-12-25T05:16:35.275Z,8.90
2018-12-25T05:19:15.012Z,8.77
2018-12-25T05:21:54.680Z,8.40
2018-12-25T05:24:33.797Z,9.13
2018-12-25T05:27:13.248Z,9.10
2018-12-25T05:29:52.343Z,9.70
2018-12-25T05:32:31.597Z,9.17
2018-12-25T05:35:10.998Z,8.13
2018-12-25T05:37:50.424Z,8.90
2018-12-25T05:40:29.913Z,8.00
2018-12-25T05:43:09.273Z,8.00
2018-12-25T05:45:48.638Z,8.50
2018-12-25T05:48:28.149Z,8.27
2018-12-25T05:51:07.629Z,8.57
2018-12-25T05:53:46.788Z,8.27
2018-12-25T05:56:26.242Z,8.13
2018-12-25T05:59:05.740Z,8.40
2018-12-25T06:01:45.175Z,8.37
2018-12-25T06:04:24.664Z,8.77
2018-12-25T06:07:04.322Z,8.13
2018-12-25T06:09:43.693Z,8.27
2018-12-25T06:12:23.077Z,8.90
2018-12-25T06:15:02.749Z,8.77
2018-12-25T06:17:42.225Z,8.67
2018-12-25T06:20:21.544Z,7.67
2018-12-25T06:23:00.950Z,8.07
2018-12-25T06:25:40.378Z,8.20
2018-12-25T06:28:20.128Z,7.97
2018-12-25T06:31:00.097Z,8.40
2018-12-25T06:33:39.389Z,8.30
2018-12-25T06:36:19.327Z,8.03
2018-12-25T06:38:59.021Z,8.27
2018-12-25T06:41:38.868Z,8.27
2018-12-25T06:44:18.149Z,8.53
2018-12-25T06:46:57.755Z,8.47
2018-12-25T06:49:37.128Z,8.73
2018-12-25T06:52:16.695Z,8.80
2018-12-25T06:54:56.330Z,8.40
2018-12-25T06:57:36.109Z,8.30
2018-12-25T07:00:15.868Z,8.20
2018-12-25T07:02:55.016Z,8.70
2018-12-25T07:05:34.557Z,8.20
2018-12-25T07:08:14.218Z,7.60
2018-12-25T07:10:53.532Z,7.70
2018-12-25T07:13:33.113Z,8.23
2018-12-25T07:16:12.597Z,7.90
2018-12-25T07:18:52.165Z,9.30
2018-12-25T07:21:31.964Z,8.50
2018-12-25T07:24:11.324Z,8.57
2018-12-25T07:26:51.340Z,9.23
2018-12-25T07:29:30.700Z,9.20
2018-12-25T07:32:10.160Z,8.27
2018-12-25T07:34:49.741Z,8.10
2018-12-25T07:37:29.063Z,8.90
2018-12-25T07:40:08.316Z,8.60
2018-12-25T07:42:47.662Z,8.77
2018-12-25T07:45:27.302Z,8.87
2018-12-25T07:48:06.629Z,9.13
2018-12-25T07:50:45.756Z,8.37
2018-12-25T07:53:24.985Z,9.33
2018-12-25T07:56:04.513Z,9.73
2018-12-25T07:58:43.956Z,10.10
2018-12-25T08:01:23.278Z,9.50
2018-12-25T08:04:02.822Z,10.10
2018-12-25T08:06:41.976Z,10.43
2018-12-25T08:09:21.248Z,10.80
2018-12-25T08:12:01.995Z,10.17
2018-12-25T08:14:42.234Z,11.00
2018-12-25T08:17:21.637Z,11.27
2018-12-25T08:20:00.997Z,10.97
2018-12-25T08:22:40.137Z,11.53
2018-12-25T08:25:19.912Z,12.50
2018-12-25T08:27:59.313Z,11.83
2018-12-25T08:30:38.760Z,12.43
2018-12-25T08:33:18.193Z,12.13
2018-12-25T08:35:57.920Z,13.60
2018-12-25T08:38:37.380Z,12.70
2018-12-25T08:41:16.822Z,11.90
2018-12-25T08:43:56.420Z,12.43
2018-12-25T08:46:35.704Z,12.43
2018-12-25T08:49:15.414Z,12.80
2018-12-25T08:51:55.032Z,14.17
2018-12-25T08:54:34.469Z,13.43
2018-12-25T08:57:13.806Z,12.83
2018-12-25T08:59:53.524Z,12.73
2018-12-25T09:02:33.072Z,13.23
2018-12-25T09:05:12.317Z,13.63
2018-12-25T09:07:51.872Z,12.53
2018-12-25T09:10:31.200Z,14.60
2018-12-25T09:13:10.653Z,13.03
2018-12-25T09:15:49.839Z,12.63
2018-12-25T09:18:29.407Z,13.17
2018-12-25T09:21:08.548Z,12.57
2018-12-25T09:23:47.625Z,12.77
2018-12-25T09:26:27.216Z,13.27
2018-12-25T09:29:06.764Z,12.33
2018-12-25T09:31:45.953Z,13.00
2018-12-25T09:34:25.580Z,11.93
2018-12-25T09:37:05.267Z,11.27
2018-12-25T09:39:44.917Z,12.17
2018-12-25T09:42:24.116Z,11.93
2018-12-25T09:45:03.191Z,12.43
2018-12-25T09:47:43.121Z,11.63
2018-12-25T09:50:22.659Z,11.53
2018-12-25T09:53:02.318Z,11.10
2018-12-25T09:55:41.620Z,11.80
2018-12-25T09:58:21.388Z,12.00
2018-12-25T10:01:00.643Z,12.53
2018-12-25T10:03:40.112Z,11.80
2018-12-25T10:06:19.234Z,11.53
2018-12-25T10:08:58.764Z,11.23
2018-12-25T10:11:44.315Z,11.80
2018-12-25T10:14:19.740Z,11.47
2018-12-25T10:16:59.288Z,12.00
2018-12-25T10:19:38.739Z,12.33
2018-12-25T10:22:18.209Z,11.70
2018-12-25T10:24:58.061Z,11.50
2018-12-25T10:27:37.747Z,12.10
2018-12-25T10:30:17.134Z,11.63
2018-12-25T10:32:56.929Z,12.60
2018-12-25T10:35:36.328Z,13.03
2018-12-25T10:38:16.152Z,12.40
2018-12-25T10:40:55.832Z,12.60
2018-12-25T10:43:35.460Z,12.97
2018-12-25T10:46:15.320Z,11.93
2018-12-25T10:48:54.637Z,13.23
2018-12-25T10:51:34.330Z,11.87
2018-12-25T10:54:14.008Z,11.73
2018-12-25T10:56:53.144Z,12.93
2018-12-25T10:59:32.757Z,12.53
2018-12-25T11:02:12.517Z,12.70
2018-12-25T11:04:51.716Z,13.47
2018-12-25T11:07:31.589Z,12.77
2018-12-25T11:10:10.781Z,12.80
2018-12-25T11:12:50.412Z,12.93
2018-12-25T11:15:29.569Z,12.33
2018-12-25T11:18:09.365Z,13.47
2018-12-25T11:20:48.963Z,13.50
2018-12-25T11:23:28.809Z,13.53
2018-12-25T11:26:08.423Z,12.17
2018-12-25T11:28:48.423Z,13.07
2018-12-25T11:31:28.144Z,13.63
2018-12-25T11:34:07.772Z,14.43
2018-12-25T11:36:47.704Z,14.63
2018-12-25T11:39:27.068Z,14.10
2018-12-25T11:42:06.464Z,14.93
2018-12-25T11:44:46.235Z,14.53
2018-12-25T11:47:26.402Z,14.83
2018-12-25T11:50:05.772Z,14.40
2018-12-25T11:52:46.000Z,15.50
2018-12-25T11:55:25.133Z,14.60
2018-12-25T11:58:04.725Z,15.43
2018-12-25T12:00:44.086Z,15.37
2018-12-25T12:03:23.965Z,14.73
2018-12-25T12:06:03.062Z,13.90
2018-12-25T12:08:42.572Z,13.77
2018-12-25T12:11:21.906Z,14.20
2018-12-25T12:14:01.409Z,13.73
2018-12-25T12:16:41.121Z,14.37
2018-12-25T12:19:21.258Z,13.60
2018-12-25T12:22:00.390Z,14.63
2018-12-25T12:24:40.017Z,15.03
2018-12-25T12:27:19.145Z,14.40
2018-12-25T12:29:58.732Z,13.07
2018-12-25T12:32:37.921Z,13.63
2018-12-25T12:35:17.333Z,13.03
2018-12-25T12:37:56.749Z,13.37
2018-12-25T12:40:36.373Z,12.70
2018-12-25T12:43:15.525Z,12.70
2018-12-25T12:45:55.076Z,12.53
2018-12-25T12:48:34.604Z,12.73
2018-12-25T12:51:14.825Z,12.33
2018-12-25T12:53:54.495Z,12.30
2018-12-25T12:56:33.769Z,11.27
2018-12-25T12:59:13.720Z,11.00
2018-12-25T13:01:52.997Z,12.30
2018-12-25T13:04:32.761Z,11.30
2018-12-25T13:07:12.077Z,12.07
2018-12-25T13:09:51.317Z,11.53
2018-12-25T13:12:31.106Z,11.53
2018-12-25T13:15:10.380Z,10.90
2018-12-25T13:17:49.828Z,10.90
2018-12-25T13:20:29.285Z,12.37
2018-12-25T13:23:08.436Z,10.67
2018-12-25T13:25:47.925Z,10.73
2018-12-25T13:28:27.292Z,10.53
2018-12-25T13:31:06.949Z,10.50
2018-12-25T13:33:46.198Z,9.87
2018-12-25T13:36:25.816Z,9.83
2018-12-25T13:39:05.853Z,10.13
2018-12-25T13:41:45.333Z,10.43
2018-12-25T13:44:25.161Z,10.80
2018-12-25T13:47:04.409Z,10.60
2018-12-25T13:49:43.763Z,11.07
2018-12-25T13:53:04.606Z,10.53
2018-12-25T13:55:43.568Z,11.17
2018-12-25T13:58:22.556Z,11.00
2018-12-25T14:01:01.764Z,9.97
2018-12-25T14:03:41.556Z,9.77
2018-12-25T14:06:21.492Z,10.00
2018-12-25T14:09:00.856Z,9.57
2018-12-25T14:11:40.661Z,10.63
2018-12-25T14:14:19.720Z,10.13
2018-12-25T14:16:59.584Z,9.53
2018-12-25T14:19:39.612Z,11.53
2018-12-25T14:22:19.352Z,9.67
2018-12-25T14:24:59.234Z,11.13
2018-12-25T14:27:38.212Z,11.07
2018-12-25T14:30:17.597Z,11.30
2018-12-25T14:32:57.190Z,11.83
2018-12-25T14:35:36.186Z,11.83
2018-12-25T14:38:15.254Z,9.70
2018-12-25T14:40:55.084Z,10.23
2018-12-25T14:43:34.355Z,10.20
2018-12-25T14:46:14.046Z,10.80
2018-12-25T14:48:53.132Z,10.73
2018-12-25T14:51:33.000Z,10.37
2018-12-25T14:54:11.911Z,10.13
2018-12-25T14:56:51.232Z,10.00
2018-12-25T14:59:31.148Z,9.60
2018-12-25T15:02:10.192Z,10.60
2018-12-25T15:04:49.338Z,10.10
2018-12-25T15:07:28.587Z,10.20
2018-12-25T15:10:08.300Z,10.00
2018-12-25T15:12:47.280Z,9.97
2018-12-25T15:15:26.676Z,9.70
2018-12-25T15:18:06.340Z,10.40
2018-12-25T15:20:45.601Z,10.70
2018-12-25T15:23:28.245Z,9.30
2018-12-25T15:26:06.184Z,9.77
2018-12-25T15:28:45.129Z,10.30
2018-12-25T15:31:24.389Z,10.40
2018-12-25T15:34:03.449Z,10.67
2018-12-25T15:36:42.451Z,10.10
2018-12-25T15:39:21.412Z,10.33
2018-12-25T15:42:01.283Z,10.17
2018-12-25T15:44:40.364Z,10.67
2018-12-25T15:47:19.635Z,11.40
2018-12-25T15:49:59.378Z,10.20
2018-12-25T15:52:38.508Z,11.40
2018-12-25T15:55:17.724Z,10.87
2018-12-25T15:57:57.700Z,10.13
2018-12-25T16:00:37.258Z,10.80
2018-12-25T16:03:17.198Z,10.23
2018-12-25T16:05:56.605Z,10.27
2018-12-25T16:08:36.476Z,10.80
2018-12-25T16:11:16.730Z,11.60
2018-12-25T16:13:56.473Z,9.97
2018-12-25T16:16:35.421Z,10.03
2018-12-25T16:19:14.530Z,10.87
2018-12-25T16:21:53.613Z,10.57
2018-12-25T16:24:32.820Z,10.57
2018-12-25T16:27:12.905Z,9.60
2018-12-25T16:29:53.424Z,10.90
2018-12-25T16:32:32.498Z,11.23
2018-12-25T16:35:11.455Z,10.67
2018-12-25T16:37:50.524Z,11.13
2018-12-25T16:40:29.694Z,10.43
2018-12-25T16:43:09.566Z,10.13
2018-12-25T16:45:48.577Z,9.73
2018-12-25T16:48:28.435Z,10.80
2018-12-25T16:51:07.448Z,9.23
2018-12-25T16:53:53.383Z,9.80
2018-12-25T16:56:27.538Z,10.13
2018-12-25T16:59:07.450Z,9.03
2018-12-25T17:01:46.889Z,8.97
2018-12-25T17:04:26.740Z,9.77
2018-12-25T17:07:05.804Z,9.10
2018-12-25T17:09:45.741Z,9.47
2018-12-25T17:12:25.118Z,9.63
2018-12-25T17:15:04.866Z,9.10
2018-12-25T17:17:44.824Z,10.17
2018-12-25T17:20:23.863Z,10.20
2018-12-25T17:23:04.080Z,10.60
2018-12-25T17:25:44.149Z,10.67
2018-12-25T17:28:27.742Z,9.47
2018-12-25T17:31:04.340Z,10.17
2018-12-25T17:33:43.561Z,10.93
2018-12-25T17:36:23.560Z,10.20
2018-12-25T17:39:03.976Z,10.10
2018-12-25T17:41:43.546Z,10.13
2018-12-25T17:44:23.081Z,10.63
2018-12-25T17:47:02.911Z,10.80
2018-12-25T17:49:42.865Z,11.37
2018-12-25T17:52:22.692Z,10.67
2018-12-25T17:55:02.101Z,10.67
2018-12-25T17:57:41.884Z,10.00
2018-12-25T18:00:21.071Z,11.00
2018-12-25T18:03:01.116Z,11.03
2018-12-25T18:05:40.392Z,10.73
2018-12-25T18:08:20.272Z,11.17
2018-12-25T18:10:59.499Z,11.03
2018-12-25T18:13:39.322Z,12.57
2018-12-25T18:16:18.980Z,10.07
2018-12-25T18:18:58.537Z,10.47
2018-12-25T18:21:37.622Z,10.87
2018-12-25T18:24:19.388Z,12.00
2018-12-25T18:26:58.434Z,10.77
2018-12-25T18:29:38.296Z,11.27
2018-12-25T18:32:17.269Z,11.20
2018-12-25T18:34:56.300Z,11.63
2018-12-25T18:37:35.422Z,10.47
2018-12-25T18:40:14.587Z,11.13
2018-12-25T18:42:54.507Z,11.27
2018-12-25T18:45:33.428Z,11.63
2018-12-25T18:48:13.078Z,11.60
2018-12-25T18:50:52.625Z,11.30
2018-12-25T18:53:31.840Z,11.10
2018-12-25T18:56:11.089Z,11.67
2018-12-25T18:58:51.139Z,11.77
2018-12-25T19:01:30.967Z,11.63
2018-12-25T19:04:09.973Z,12.07
2018-12-25T19:06:49.102Z,12.00
2018-12-25T19:09:29.240Z,11.87
2018-12-25T19:12:08.269Z,12.27
2018-12-25T19:14:48.444Z,12.00
2018-12-25T19:17:28.184Z,12.40
2018-12-25T19:20:07.244Z,12.07
2018-12-25T19:22:46.431Z,11.77
2018-12-25T19:25:25.853Z,12.10
2018-12-25T19:28:05.581Z,11.23
2018-12-25T19:30:44.558Z,12.70
2018-12-25T19:33:24.466Z,13.20
2018-12-25T19:36:03.598Z,12.33
2018-12-25T19:38:43.529Z,13.27
2018-12-25T19:41:22.552Z,12.10
2018-12-25T19:44:01.534Z,12.20
2018-12-25T19:46:40.509Z,12.33
2018-12-25T19:49:19.491Z,11.50
2018-12-25T19:51:59.400Z,12.30
2018-12-25T19:54:44.541Z,13.17
2018-12-25T19:57:19.714Z,12.77
2018-12-25T19:59:59.245Z,13.13
2018-12-25T20:02:38.353Z,11.93
2018-12-25T20:05:17.280Z,12.90
2018-12-25T20:07:56.471Z,12.90
2018-12-25T20:10:35.720Z,13.53
2018-12-25T20:13:15.921Z,12.83
2018-12-25T20:15:55.329Z,11.43
2018-12-25T20:18:34.257Z,12.73
2018-12-25T20:21:13.484Z,13.50
2018-12-25T20:23:53.193Z,13.30
2018-12-25T20:26:32.136Z,14.23
2018-12-25T20:29:11.119Z,12.60
2018-12-25T20:31:50.031Z,13.53
2018-12-25T20:34:29.101Z,13.83
2018-12-25T20:37:08.209Z,13.23
2018-12-25T20:39:47.241Z,14.77
2018-12-25T20:42:26.170Z,15.07
2018-12-25T20:45:06.367Z,13.57
2018-12-25T20:47:46.633Z,14.17
2018-12-25T20:50:26.097Z,14.63
2018-12-25T20:53:05.060Z,14.17
2018-12-25T20:55:44.060Z,14.50
2018-12-25T20:58:23.280Z,14.27
2018-12-25T21:01:02.380Z,13.73
2018-12-25T21:03:41.353Z,13.90
2018-12-25T21:06:20.603Z,13.30
2018-12-25T21:09:00.346Z,12.53
2018-12-25T21:11:40.258Z,13.20
2018-12-25T21:14:20.153Z,14.17
2018-12-25T21:16:59.128Z,14.37
2018-12-25T21:19:38.388Z,14.60
2018-12-25T21:22:18.237Z,16.40
2018-12-25T21:24:58.057Z,15.07
2018-12-25T21:27:37.170Z,16.33
2018-12-25T21:30:16.052Z,16.13
2018-12-25T21:32:55.142Z,15.20
2018-12-25T21:35:34.171Z,13.97
2018-12-25T21:38:13.180Z,15.63
2018-12-25T21:40:52.997Z,15.43
2018-12-25T21:43:32.168Z,17.07
2018-12-25T21:46:11.099Z,14.77
2018-12-25T21:48:50.103Z,14.23
2018-12-25T21:51:29.122Z,15.73
2018-12-25T21:54:08.227Z,14.60
2018-12-25T21:56:48.006Z,15.67
2018-12-25T21:59:27.265Z,15.33
2018-12-25T22:02:06.477Z,15.73
2018-12-25T22:04:45.582Z,16.00
2018-12-25T22:07:24.712Z,15.87
2018-12-25T22:10:03.751Z,15.77
2018-12-25T22:12:42.824Z,15.83
2018-12-25T22:15:22.310Z,13.77
2018-12-25T22:18:01.525Z,15.97
2018-12-25T22:20:41.401Z,16.37
2018-12-25T22:23:21.376Z,16.70
2018-12-25T22:26:00.810Z,17.50
2018-12-25T22:28:40.728Z,16.30
2018-12-25T22:31:20.712Z,17.33
2018-12-25T22:33:59.738Z,17.23
2018-12-25T22:36:39.164Z,16.17
2018-12-25T22:39:18.135Z,18.07
2018-12-25T22:41:58.605Z,17.27
2018-12-25T22:44:38.230Z,18.00
2018-12-25T22:47:17.324Z,16.57
2018-12-25T22:49:56.484Z,15.77
2018-12-25T22:52:35.538Z,15.67
2018-12-25T22:55:14.644Z,16.50
2018-12-25T22:57:54.037Z,16.20
2018-12-25T23:00:33.888Z,17.10
2018-12-25T23:03:13.228Z,16.10
2018-12-25T23:05:52.276Z,15.60
2018-12-25T23:08:31.416Z,16.57
2018-12-25T23:11:10.384Z,17.50
2018-12-25T23:13:49.908Z,16.67
2018-12-25T23:16:29.554Z,16.73
2018-12-25T23:19:09.485Z,15.70
2018-12-25T23:21:48.874Z,16.70
2018-12-25T23:24:28.694Z,18.17
2018-12-25T23:27:07.691Z,17.23
2018-12-25T23:29:46.858Z,17.97
2018-12-25T23:32:26.128Z,17.37
2018-12-25T23:35:05.173Z,18.67
2018-12-25T23:37:45.133Z,20.10
2018-12-25T23:40:25.022Z,18.83
2018-12-25T23:43:04.040Z,21.30
2018-12-25T23:45:43.137Z,18.40
2018-12-25T23:48:22.930Z,19.23
2018-12-25T23:51:02.044Z,19.17
2018-12-25T23:53:41.892Z,18.00
2018-12-25T23:56:20.901Z,19.13
2018-12-25T23:59:00.014Z,18.40
